Wellston, Ohio
Current Conditions -  °F | °C
As of 2:15 PM on Sunday 21 Dec 2014 (Local Time) from KUNI Reporting Station
Scattered Clouds Scattered Clouds  
Wind Chill: 38°   Ceiling: Unl
Heat Index: 38°   Visibility: 10mi
Dew Point: 26°   Wind: 0mph
Humidity: 62%   Direction: NA
Pressure: 30.22"   Gusts: NA
Location:  39.12°N, 82.53°W
Report Text: KUNI 211915Z AUTO 00000KT 10SM SCT028 03/M03 A3022 RMK AO2 T00311035
Loading
Personal Weather Stations






























Interactive Weather Map New forecast layout! Learn more

10-Day Weather Forecast

Advertisements
Track Severe Weather on mobile